sensor_id;sensor_type;location;lat;lon;timestamp;temperature;humidity
7002;DHT22;3541;53.230;10.518;2024-01-30T00:00:24;5.70;99.90
7002;DHT22;3541;53.230;10.518;2024-01-30T00:02:50;5.70;99.90
7002;DHT22;3541;53.230;10.518;2024-01-30T00:05:17;5.70;99.90
7002;DHT22;3541;53.230;10.518;2024-01-30T00:07:44;5.70;99.90
7002;DHT22;3541;53.230;10.518;2024-01-30T00:10:11;5.70;99.90
7002;DHT22;3541;53.230;10.518;2024-01-30T00:12:38;5.70;99.90
7002;DHT22;3541;53.230;10.518;2024-01-30T00:15:05;5.70;99.90
7002;DHT22;3541;53.230;10.518;2024-01-30T00:17:35;5.70;99.90
7002;DHT22;3541;53.230;10.518;2024-01-30T00:20:01;5.60;99.90
7002;DHT22;3541;53.230;10.518;2024-01-30T00:22:30;5.60;99.90
7002;DHT22;3541;53.230;10.518;2024-01-30T00:24:58;5.60;99.90
7002;DHT22;3541;53.230;10.518;2024-01-30T00:27:25;5.50;99.90
7002;DHT22;3541;53.230;10.518;2024-01-30T00:29:52;5.60;99.90
7002;DHT22;3541;53.230;10.518;2024-01-30T00:32:19;5.50;99.90
7002;DHT22;3541;53.230;10.518;2024-01-30T00:34:45;5.50;99.90
7002;DHT22;3541;53.230;10.518;2024-01-30T00:37:12;5.50;99.90
7002;DHT22;3541;53.230;10.518;2024-01-30T00:39:38;5.50;99.90
7002;DHT22;3541;53.230;10.518;2024-01-30T00:42:06;5.50;99.90
7002;DHT22;3541;53.230;10.518;2024-01-30T00:44:35;5.50;99.90
7002;DHT22;3541;53.230;10.518;2024-01-30T00:47:02;5.50;99.90
7002;DHT22;3541;53.230;10.518;2024-01-30T00:49:29;5.50;99.90
7002;DHT22;3541;53.230;10.518;2024-01-30T00:51:56;5.50;99.90
7002;DHT22;3541;53.230;10.518;2024-01-30T00:54:22;5.50;99.90
7002;DHT22;3541;53.230;10.518;2024-01-30T00:56:49;5.40;99.90
7002;DHT22;3541;53.230;10.518;2024-01-30T00:59:17;5.50;99.90
7002;DHT22;3541;53.230;10.518;2024-01-30T01:01:43;5.40;99.90
7002;DHT22;3541;53.230;10.518;2024-01-30T01:04:10;5.40;99.90
7002;DHT22;3541;53.230;10.518;2024-01-30T01:06:36;5.40;99.90
7002;DHT22;3541;53.230;10.518;2024-01-30T01:09:03;5.40;99.90
7002;DHT22;3541;53.230;10.518;2024-01-30T01:11:30;5.50;99.90
7002;DHT22;3541;53.230;10.518;2024-01-30T01:13:56;5.40;99.90
7002;DHT22;3541;53.230;10.518;2024-01-30T01:16:24;5.40;99.90
7002;DHT22;3541;53.230;10.518;2024-01-30T01:18:51;5.50;99.90
7002;DHT22;3541;53.230;10.518;2024-01-30T01:21:18;5.50;99.90
7002;DHT22;3541;53.230;10.518;2024-01-30T01:23:44;5.40;99.90
7002;DHT22;3541;53.230;10.518;2024-01-30T01:26:11;5.40;99.90
7002;DHT22;3541;53.230;10.518;2024-01-30T01:28:40;5.40;99.90
7002;DHT22;3541;53.230;10.518;2024-01-30T01:31:06;5.40;99.90
7002;DHT22;3541;53.230;10.518;2024-01-30T01:33:34;5.40;99.90
7002;DHT22;3541;53.230;10.518;2024-01-30T01:36:02;5.40;99.90
7002;DHT22;3541;53.230;10.518;2024-01-30T01:38:29;5.30;99.90
7002;DHT22;3541;53.230;10.518;2024-01-30T01:40:55;5.30;99.90
7002;DHT22;3541;53.230;10.518;2024-01-30T01:43:22;5.30;99.90
7002;DHT22;3541;53.230;10.518;2024-01-30T01:45:49;5.30;99.90
7002;DHT22;3541;53.230;10.518;2024-01-30T01:48:15;5.30;99.90
7002;DHT22;3541;53.230;10.518;2024-01-30T01:50:43;5.30;99.90
7002;DHT22;3541;53.230;10.518;2024-01-30T01:53:10;5.30;99.90
7002;DHT22;3541;53.230;10.518;2024-01-30T01:55:37;5.30;99.90
7002;DHT22;3541;53.230;10.518;2024-01-30T01:58:04;5.30;99.90
7002;DHT22;3541;53.230;10.518;2024-01-30T02:00:31;5.30;99.90
7002;DHT22;3541;53.230;10.518;2024-01-30T02:02:58;5.30;99.90
7002;DHT22;3541;53.230;10.518;2024-01-30T02:05:26;5.30;99.90
7002;DHT22;3541;53.230;10.518;2024-01-30T02:07:54;5.30;99.90
7002;DHT22;3541;53.230;10.518;2024-01-30T02:10:21;5.30;99.90
7002;DHT22;3541;53.230;10.518;2024-01-30T02:12:48;5.30;99.90
7002;DHT22;3541;53.230;10.518;2024-01-30T02:15:15;5.30;99.90
7002;DHT22;3541;53.230;10.518;2024-01-30T02:17:41;5.30;99.90
7002;DHT22;3541;53.230;10.518;2024-01-30T02:20:09;5.30;99.90
7002;DHT22;3541;53.230;10.518;2024-01-30T02:22:37;5.30;99.90
7002;DHT22;3541;53.230;10.518;2024-01-30T02:25:05;5.30;99.90
7002;DHT22;3541;53.230;10.518;2024-01-30T02:27:31;5.30;99.90
7002;DHT22;3541;53.230;10.518;2024-01-30T02:29:59;5.30;99.90
7002;DHT22;3541;53.230;10.518;2024-01-30T02:32:25;5.30;99.90
7002;DHT22;3541;53.230;10.518;2024-01-30T02:34:52;5.30;99.90
7002;DHT22;3541;53.230;10.518;2024-01-30T02:37:19;5.30;99.90
7002;DHT22;3541;53.230;10.518;2024-01-30T02:39:46;5.30;99.90
7002;DHT22;3541;53.230;10.518;2024-01-30T02:42:13;5.30;99.90
7002;DHT22;3541;53.230;10.518;2024-01-30T02:44:40;5.30;99.90
7002;DHT22;3541;53.230;10.518;2024-01-30T02:47:06;5.30;99.90
7002;DHT22;3541;53.230;10.518;2024-01-30T02:49:33;5.30;99.90
7002;DHT22;3541;53.230;10.518;2024-01-30T02:51:59;5.30;99.90
7002;DHT22;3541;53.230;10.518;2024-01-30T02:54:26;5.30;99.90
7002;DHT22;3541;53.230;10.518;2024-01-30T02:56:54;5.30;99.90
7002;DHT22;3541;53.230;10.518;2024-01-30T02:59:20;5.30;99.90
7002;DHT22;3541;53.230;10.518;2024-01-30T03:01:47;5.30;99.90
7002;DHT22;3541;53.230;10.518;2024-01-30T03:04:13;5.30;99.90
7002;DHT22;3541;53.230;10.518;2024-01-30T03:06:44;5.30;99.90
7002;DHT22;3541;53.230;10.518;2024-01-30T03:09:11;5.40;99.90
7002;DHT22;3541;53.230;10.518;2024-01-30T03:11:38;5.40;99.90
7002;DHT22;3541;53.230;10.518;2024-01-30T03:14:06;5.40;99.90
7002;DHT22;3541;53.230;10.518;2024-01-30T03:16:33;5.40;99.90
7002;DHT22;3541;53.230;10.518;2024-01-30T03:19:00;5.40;99.90
7002;DHT22;3541;53.230;10.518;2024-01-30T03:21:27;5.40;99.90
7002;DHT22;3541;53.230;10.518;2024-01-30T03:23:54;5.30;99.90
7002;DHT22;3541;53.230;10.518;2024-01-30T03:26:20;5.30;99.90
7002;DHT22;3541;53.230;10.518;2024-01-30T03:28:47;5.30;99.90
7002;DHT22;3541;53.230;10.518;2024-01-30T03:31:16;5.30;99.90
7002;DHT22;3541;53.230;10.518;2024-01-30T03:33:42;5.30;99.90
7002;DHT22;3541;53.230;10.518;2024-01-30T03:36:11;5.30;99.90
7002;DHT22;3541;53.230;10.518;2024-01-30T03:38:37;5.30;99.90
7002;DHT22;3541;53.230;10.518;2024-01-30T03:41:07;5.30;99.90
7002;DHT22;3541;53.230;10.518;2024-01-30T03:43:34;5.30;99.90
7002;DHT22;3541;53.230;10.518;2024-01-30T03:46:01;5.30;99.90
7002;DHT22;3541;53.230;10.518;2024-01-30T03:48:29;5.30;99.90
7002;DHT22;3541;53.230;10.518;2024-01-30T03:50:56;5.30;99.90
7002;DHT22;3541;53.230;10.518;2024-01-30T03:53:23;5.30;99.90
7002;DHT22;3541;53.230;10.518;2024-01-30T03:55:49;5.30;99.90
7002;DHT22;3541;53.230;10.518;2024-01-30T03:58:16;5.30;99.90
7002;DHT22;3541;53.230;10.518;2024-01-30T04:00:43;5.30;99.90
7002;DHT22;3541;53.230;10.518;2024-01-30T04:03:10;5.30;99.90
7002;DHT22;3541;53.230;10.518;2024-01-30T04:05:37;5.30;99.90
7002;DHT22;3541;53.230;10.518;2024-01-30T04:08:05;5.30;99.90
7002;DHT22;3541;53.230;10.518;2024-01-30T04:10:31;5.30;99.90
7002;DHT22;3541;53.230;10.518;2024-01-30T04:12:58;5.30;99.90
7002;DHT22;3541;53.230;10.518;2024-01-30T04:15:24;5.30;99.90
7002;DHT22;3541;53.230;10.518;2024-01-30T04:17:51;5.30;99.90
7002;DHT22;3541;53.230;10.518;2024-01-30T04:20:18;5.20;99.90
7002;DHT22;3541;53.230;10.518;2024-01-30T04:22:46;5.30;99.90
7002;DHT22;3541;53.230;10.518;2024-01-30T04:25:13;5.30;99.90
7002;DHT22;3541;53.230;10.518;2024-01-30T04:27:40;5.30;99.90
7002;DHT22;3541;53.230;10.518;2024-01-30T04:30:07;5.30;99.90
7002;DHT22;3541;53.230;10.518;2024-01-30T04:32:35;5.30;99.90
7002;DHT22;3541;53.230;10.518;2024-01-30T04:35:01;5.40;99.90
7002;DHT22;3541;53.230;10.518;2024-01-30T04:37:28;5.40;99.90
7002;DHT22;3541;53.230;10.518;2024-01-30T04:39:56;5.40;99.90
7002;DHT22;3541;53.230;10.518;2024-01-30T04:42:23;5.40;99.90
7002;DHT22;3541;53.230;10.518;2024-01-30T04:44:49;5.40;99.90
7002;DHT22;3541;53.230;10.518;2024-01-30T04:47:16;5.40;99.90
7002;DHT22;3541;53.230;10.518;2024-01-30T04:49:43;5.30;99.90
7002;DHT22;3541;53.230;10.518;2024-01-30T04:52:09;5.30;99.90
7002;DHT22;3541;53.230;10.518;2024-01-30T04:54:36;5.30;99.90
7002;DHT22;3541;53.230;10.518;2024-01-30T04:57:04;5.30;99.90
7002;DHT22;3541;53.230;10.518;2024-01-30T04:59:34;5.30;99.90
7002;DHT22;3541;53.230;10.518;2024-01-30T05:02:01;5.30;99.90
7002;DHT22;3541;53.230;10.518;2024-01-30T05:04:28;5.30;99.90
7002;DHT22;3541;53.230;10.518;2024-01-30T05:06:54;5.30;99.90
7002;DHT22;3541;53.230;10.518;2024-01-30T05:09:21;5.30;99.90
7002;DHT22;3541;53.230;10.518;2024-01-30T05:11:47;5.20;99.90
7002;DHT22;3541;53.230;10.518;2024-01-30T05:14:15;5.20;99.90
7002;DHT22;3541;53.230;10.518;2024-01-30T05:16:43;5.20;99.90
7002;DHT22;3541;53.230;10.518;2024-01-30T05:19:12;5.20;99.90
7002;DHT22;3541;53.230;10.518;2024-01-30T05:21:39;5.20;99.90
7002;DHT22;3541;53.230;10.518;2024-01-30T05:24:06;5.10;99.90
7002;DHT22;3541;53.230;10.518;2024-01-30T05:26:32;5.20;99.90
7002;DHT22;3541;53.230;10.518;2024-01-30T05:28:59;5.20;99.90
7002;DHT22;3541;53.230;10.518;2024-01-30T05:31:27;5.10;99.90
7002;DHT22;3541;53.230;10.518;2024-01-30T05:33:54;5.10;99.90
7002;DHT22;3541;53.230;10.518;2024-01-30T05:36:21;5.10;99.90
7002;DHT22;3541;53.230;10.518;2024-01-30T05:38:48;5.10;99.90
7002;DHT22;3541;53.230;10.518;2024-01-30T05:41:14;5.10;99.90
7002;DHT22;3541;53.230;10.518;2024-01-30T05:43:41;5.10;99.90
7002;DHT22;3541;53.230;10.518;2024-01-30T05:46:07;5.10;99.90
7002;DHT22;3541;53.230;10.518;2024-01-30T05:48:36;5.10;99.90
7002;DHT22;3541;53.230;10.518;2024-01-30T05:51:03;5.10;99.90
7002;DHT22;3541;53.230;10.518;2024-01-30T05:53:30;5.10;99.90
7002;DHT22;3541;53.230;10.518;2024-01-30T05:55:56;5.10;99.90
7002;DHT22;3541;53.230;10.518;2024-01-30T05:58:23;5.00;99.90
7002;DHT22;3541;53.230;10.518;2024-01-30T06:00:49;5.00;99.90
7002;DHT22;3541;53.230;10.518;2024-01-30T06:03:16;5.10;99.90
7002;DHT22;3541;53.230;10.518;2024-01-30T06:05:44;5.00;99.90
7002;DHT22;3541;53.230;10.518;2024-01-30T06:08:10;5.00;99.90
7002;DHT22;3541;53.230;10.518;2024-01-30T06:10:37;5.10;99.90
7002;DHT22;3541;53.230;10.518;2024-01-30T06:13:04;5.00;99.90
7002;DHT22;3541;53.230;10.518;2024-01-30T06:15:31;5.00;99.90
7002;DHT22;3541;53.230;10.518;2024-01-30T06:17:58;5.10;99.90
7002;DHT22;3541;53.230;10.518;2024-01-30T06:20:24;5.10;99.90
7002;DHT22;3541;53.230;10.518;2024-01-30T06:22:52;5.00;99.90
7002;DHT22;3541;53.230;10.518;2024-01-30T06:25:19;5.00;99.90
7002;DHT22;3541;53.230;10.518;2024-01-30T06:27:45;5.00;99.90
7002;DHT22;3541;53.230;10.518;2024-01-30T06:30:13;5.00;99.90
7002;DHT22;3541;53.230;10.518;2024-01-30T06:32:38;5.00;99.90
7002;DHT22;3541;53.230;10.518;2024-01-30T06:35:05;5.00;99.90
7002;DHT22;3541;53.230;10.518;2024-01-30T06:37:33;5.00;99.90
7002;DHT22;3541;53.230;10.518;2024-01-30T06:40:01;5.00;99.90
7002;DHT22;3541;53.230;10.518;2024-01-30T06:42:27;5.00;99.90
7002;DHT22;3541;53.230;10.518;2024-01-30T06:44:54;5.00;99.90
7002;DHT22;3541;53.230;10.518;2024-01-30T06:47:20;5.00;99.90
7002;DHT22;3541;53.230;10.518;2024-01-30T06:49:47;5.00;99.90
7002;DHT22;3541;53.230;10.518;2024-01-30T06:52:14;5.00;99.90
7002;DHT22;3541;53.230;10.518;2024-01-30T06:54:40;5.00;99.90
7002;DHT22;3541;53.230;10.518;2024-01-30T06:57:08;5.00;99.90
7002;DHT22;3541;53.230;10.518;2024-01-30T06:59:37;5.00;99.90
7002;DHT22;3541;53.230;10.518;2024-01-30T07:02:08;5.00;99.90
7002;DHT22;3541;53.230;10.518;2024-01-30T07:04:35;5.00;99.90
7002;DHT22;3541;53.230;10.518;2024-01-30T07:07:02;5.00;99.90
7002;DHT22;3541;53.230;10.518;2024-01-30T07:09:30;5.00;99.90
7002;DHT22;3541;53.230;10.518;2024-01-30T07:11:56;5.00;99.90
7002;DHT22;3541;53.230;10.518;2024-01-30T07:14:25;5.00;99.90
7002;DHT22;3541;53.230;10.518;2024-01-30T07:16:51;4.90;99.90
7002;DHT22;3541;53.230;10.518;2024-01-30T07:19:18;4.90;99.90
7002;DHT22;3541;53.230;10.518;2024-01-30T07:21:44;5.00;99.90
7002;DHT22;3541;53.230;10.518;2024-01-30T07:24:11;5.00;99.90
7002;DHT22;3541;53.230;10.518;2024-01-30T07:26:38;5.00;99.90
7002;DHT22;3541;53.230;10.518;2024-01-30T07:29:04;5.00;99.90
7002;DHT22;3541;53.230;10.518;2024-01-30T07:31:32;5.00;99.90
7002;DHT22;3541;53.230;10.518;2024-01-30T07:33:59;5.00;99.90
7002;DHT22;3541;53.230;10.518;2024-01-30T07:36:25;5.00;99.90
7002;DHT22;3541;53.230;10.518;2024-01-30T07:38:52;4.90;99.90
7002;DHT22;3541;53.230;10.518;2024-01-30T07:41:20;4.90;99.90
7002;DHT22;3541;53.230;10.518;2024-01-30T07:43:46;4.90;99.90
7002;DHT22;3541;53.230;10.518;2024-01-30T07:46:13;4.90;99.90
7002;DHT22;3541;53.230;10.518;2024-01-30T07:48:42;4.90;99.90
7002;DHT22;3541;53.230;10.518;2024-01-30T07:51:08;4.90;99.90
7002;DHT22;3541;53.230;10.518;2024-01-30T07:53:35;4.90;99.90
7002;DHT22;3541;53.230;10.518;2024-01-30T07:56:01;5.00;99.90
7002;DHT22;3541;53.230;10.518;2024-01-30T07:58:28;5.00;99.90
7002;DHT22;3541;53.230;10.518;2024-01-30T08:00:55;5.00;99.90
7002;DHT22;3541;53.230;10.518;2024-01-30T08:03:23;5.00;99.90
7002;DHT22;3541;53.230;10.518;2024-01-30T08:05:51;5.00;99.90
7002;DHT22;3541;53.230;10.518;2024-01-30T08:08:18;5.00;99.90
7002;DHT22;3541;53.230;10.518;2024-01-30T08:10:44;5.00;99.90
7002;DHT22;3541;53.230;10.518;2024-01-30T08:13:11;5.00;99.90
7002;DHT22;3541;53.230;10.518;2024-01-30T08:15:37;5.00;99.90
7002;DHT22;3541;53.230;10.518;2024-01-30T08:18:04;5.10;99.90
7002;DHT22;3541;53.230;10.518;2024-01-30T08:20:32;5.10;99.90
7002;DHT22;3541;53.230;10.518;2024-01-30T08:23:00;5.10;99.90
7002;DHT22;3541;53.230;10.518;2024-01-30T08:25:26;5.20;99.90
7002;DHT22;3541;53.230;10.518;2024-01-30T08:27:53;5.20;99.90
7002;DHT22;3541;53.230;10.518;2024-01-30T08:30:20;5.20;99.90
7002;DHT22;3541;53.230;10.518;2024-01-30T08:32:46;5.20;99.90
7002;DHT22;3541;53.230;10.518;2024-01-30T08:35:13;5.30;99.90
7002;DHT22;3541;53.230;10.518;2024-01-30T08:37:41;5.30;99.90
7002;DHT22;3541;53.230;10.518;2024-01-30T08:40:10;5.40;99.90
7002;DHT22;3541;53.230;10.518;2024-01-30T08:42:36;5.40;99.90
7002;DHT22;3541;53.230;10.518;2024-01-30T08:45:04;5.40;99.90
7002;DHT22;3541;53.230;10.518;2024-01-30T08:47:30;5.40;99.90
7002;DHT22;3541;53.230;10.518;2024-01-30T08:49:58;5.40;99.90
7002;DHT22;3541;53.230;10.518;2024-01-30T08:52:25;5.40;99.90
7002;DHT22;3541;53.230;10.518;2024-01-30T08:54:51;5.40;99.90
7002;DHT22;3541;53.230;10.518;2024-01-30T08:57:19;5.40;99.90
7002;DHT22;3541;53.230;10.518;2024-01-30T08:59:46;5.40;99.90
7002;DHT22;3541;53.230;10.518;2024-01-30T09:02:13;5.40;99.90
7002;DHT22;3541;53.230;10.518;2024-01-30T09:04:41;5.50;99.90
7002;DHT22;3541;53.230;10.518;2024-01-30T09:07:09;5.50;99.90
7002;DHT22;3541;53.230;10.518;2024-01-30T09:09:37;5.50;99.90
7002;DHT22;3541;53.230;10.518;2024-01-30T09:12:04;5.50;99.90
7002;DHT22;3541;53.230;10.518;2024-01-30T09:14:34;5.50;99.90
7002;DHT22;3541;53.230;10.518;2024-01-30T09:17:01;5.60;99.90
7002;DHT22;3541;53.230;10.518;2024-01-30T09:19:28;5.60;99.90
7002;DHT22;3541;53.230;10.518;2024-01-30T09:21:55;5.60;99.90
7002;DHT22;3541;53.230;10.518;2024-01-30T09:24:21;5.70;99.90
7002;DHT22;3541;53.230;10.518;2024-01-30T09:26:48;5.70;99.90
7002;DHT22;3541;53.230;10.518;2024-01-30T09:29:14;5.70;99.90
7002;DHT22;3541;53.230;10.518;2024-01-30T09:31:44;5.80;99.90
7002;DHT22;3541;53.230;10.518;2024-01-30T09:34:11;5.80;99.90
7002;DHT22;3541;53.230;10.518;2024-01-30T09:36:38;5.80;99.90
7002;DHT22;3541;53.230;10.518;2024-01-30T09:39:05;5.90;99.90
7002;DHT22;3541;53.230;10.518;2024-01-30T09:41:33;5.90;99.90
7002;DHT22;3541;53.230;10.518;2024-01-30T09:44:03;5.90;99.90
7002;DHT22;3541;53.230;10.518;2024-01-30T09:46:32;5.90;99.90
7002;DHT22;3541;53.230;10.518;2024-01-30T09:49:02;5.90;99.90
7002;DHT22;3541;53.230;10.518;2024-01-30T09:51:30;6.00;99.90
7002;DHT22;3541;53.230;10.518;2024-01-30T09:53:57;6.00;99.90
7002;DHT22;3541;53.230;10.518;2024-01-30T09:56:23;6.10;99.90
7002;DHT22;3541;53.230;10.518;2024-01-30T09:58:50;6.10;99.90
7002;DHT22;3541;53.230;10.518;2024-01-30T10:01:17;6.10;99.90
7002;DHT22;3541;53.230;10.518;2024-01-30T10:03:44;6.10;99.90
7002;DHT22;3541;53.230;10.518;2024-01-30T10:06:13;6.20;99.90
7002;DHT22;3541;53.230;10.518;2024-01-30T10:08:42;6.30;99.90
7002;DHT22;3541;53.230;10.518;2024-01-30T10:11:09;6.30;99.90
7002;DHT22;3541;53.230;10.518;2024-01-30T10:13:35;6.30;99.90
7002;DHT22;3541;53.230;10.518;2024-01-30T10:16:02;6.40;99.90
7002;DHT22;3541;53.230;10.518;2024-01-30T10:18:31;6.50;99.90
7002;DHT22;3541;53.230;10.518;2024-01-30T10:20:58;6.50;99.90
7002;DHT22;3541;53.230;10.518;2024-01-30T10:23:26;6.60;99.90
7002;DHT22;3541;53.230;10.518;2024-01-30T10:25:53;6.60;99.90
7002;DHT22;3541;53.230;10.518;2024-01-30T10:28:20;6.60;99.90
7002;DHT22;3541;53.230;10.518;2024-01-30T10:30:57;6.60;99.90
7002;DHT22;3541;53.230;10.518;2024-01-30T10:33:24;6.70;99.90
7002;DHT22;3541;53.230;10.518;2024-01-30T10:35:50;6.80;99.90
7002;DHT22;3541;53.230;10.518;2024-01-30T10:38:19;6.80;99.90
7002;DHT22;3541;53.230;10.518;2024-01-30T10:40:48;6.90;99.90
7002;DHT22;3541;53.230;10.518;2024-01-30T10:43:22;6.90;99.90
7002;DHT22;3541;53.230;10.518;2024-01-30T10:45:49;7.00;99.90
7002;DHT22;3541;53.230;10.518;2024-01-30T10:48:19;7.10;99.90
7002;DHT22;3541;53.230;10.518;2024-01-30T10:50:50;7.10;99.90
7002;DHT22;3541;53.230;10.518;2024-01-30T10:53:18;7.20;99.90
7002;DHT22;3541;53.230;10.518;2024-01-30T10:55:48;7.20;99.90
7002;DHT22;3541;53.230;10.518;2024-01-30T10:58:17;7.30;99.90
7002;DHT22;3541;53.230;10.518;2024-01-30T11:00:43;7.30;99.90
7002;DHT22;3541;53.230;10.518;2024-01-30T11:03:11;7.40;99.90
7002;DHT22;3541;53.230;10.518;2024-01-30T11:05:40;7.40;99.90
7002;DHT22;3541;53.230;10.518;2024-01-30T11:08:11;7.50;99.90
7002;DHT22;3541;53.230;10.518;2024-01-30T11:10:45;7.50;99.90
7002;DHT22;3541;53.230;10.518;2024-01-30T11:13:15;7.60;99.90
7002;DHT22;3541;53.230;10.518;2024-01-30T11:15:41;7.60;99.90
7002;DHT22;3541;53.230;10.518;2024-01-30T11:18:08;7.70;99.90
7002;DHT22;3541;53.230;10.518;2024-01-30T11:20:34;7.70;99.90
7002;DHT22;3541;53.230;10.518;2024-01-30T11:23:02;7.70;99.90
7002;DHT22;3541;53.230;10.518;2024-01-30T11:25:32;7.80;99.90
7002;DHT22;3541;53.230;10.518;2024-01-30T11:27:58;7.80;99.90
7002;DHT22;3541;53.230;10.518;2024-01-30T11:30:27;7.80;99.90
7002;DHT22;3541;53.230;10.518;2024-01-30T11:33:01;7.80;99.90
7002;DHT22;3541;53.230;10.518;2024-01-30T11:35:31;7.80;99.90
7002;DHT22;3541;53.230;10.518;2024-01-30T11:37:58;7.80;99.90
7002;DHT22;3541;53.230;10.518;2024-01-30T11:40:27;7.90;99.90
7002;DHT22;3541;53.230;10.518;2024-01-30T11:42:54;7.90;99.90
7002;DHT22;3541;53.230;10.518;2024-01-30T11:45:21;7.90;99.90
7002;DHT22;3541;53.230;10.518;2024-01-30T11:47:49;7.90;99.90
7002;DHT22;3541;53.230;10.518;2024-01-30T11:50:16;7.90;99.90
7002;DHT22;3541;53.230;10.518;2024-01-30T11:52:43;7.90;99.90
7002;DHT22;3541;53.230;10.518;2024-01-30T11:55:10;7.90;99.90
7002;DHT22;3541;53.230;10.518;2024-01-30T11:57:36;8.00;99.90
7002;DHT22;3541;53.230;10.518;2024-01-30T12:00:04;8.00;99.90
7002;DHT22;3541;53.230;10.518;2024-01-30T12:02:35;8.00;99.90
7002;DHT22;3541;53.230;10.518;2024-01-30T12:05:05;8.10;99.90
7002;DHT22;3541;53.230;10.518;2024-01-30T12:07:31;8.10;99.90
7002;DHT22;3541;53.230;10.518;2024-01-30T12:09:58;8.20;99.90
7002;DHT22;3541;53.230;10.518;2024-01-30T12:12:26;8.20;99.90
7002;DHT22;3541;53.230;10.518;2024-01-30T12:14:53;8.20;99.90
7002;DHT22;3541;53.230;10.518;2024-01-30T12:17:24;8.20;99.90
7002;DHT22;3541;53.230;10.518;2024-01-30T12:19:51;8.20;99.90
7002;DHT22;3541;53.230;10.518;2024-01-30T12:22:21;8.20;99.90
7002;DHT22;3541;53.230;10.518;2024-01-30T12:24:47;8.20;99.90
7002;DHT22;3541;53.230;10.518;2024-01-30T12:27:15;8.20;99.90
7002;DHT22;3541;53.230;10.518;2024-01-30T12:29:42;8.30;99.90
7002;DHT22;3541;53.230;10.518;2024-01-30T12:32:15;8.20;99.90
7002;DHT22;3541;53.230;10.518;2024-01-30T12:34:42;8.30;99.90
7002;DHT22;3541;53.230;10.518;2024-01-30T12:37:08;8.30;99.90
7002;DHT22;3541;53.230;10.518;2024-01-30T12:39:38;8.30;99.90
7002;DHT22;3541;53.230;10.518;2024-01-30T12:42:04;8.30;99.90
7002;DHT22;3541;53.230;10.518;2024-01-30T12:44:31;8.30;99.90
7002;DHT22;3541;53.230;10.518;2024-01-30T12:46:58;8.40;99.90
7002;DHT22;3541;53.230;10.518;2024-01-30T12:49:24;8.40;99.90
7002;DHT22;3541;53.230;10.518;2024-01-30T12:51:51;8.40;99.90
7002;DHT22;3541;53.230;10.518;2024-01-30T12:54:17;8.50;99.90
7002;DHT22;3541;53.230;10.518;2024-01-30T12:56:45;8.50;99.90
7002;DHT22;3541;53.230;10.518;2024-01-30T12:59:12;8.60;99.90
7002;DHT22;3541;53.230;10.518;2024-01-30T13:01:38;8.60;99.90
7002;DHT22;3541;53.230;10.518;2024-01-30T13:04:05;8.60;99.90
7002;DHT22;3541;53.230;10.518;2024-01-30T13:06:32;8.60;99.90
7002;DHT22;3541;53.230;10.518;2024-01-30T13:08:58;8.70;99.90
7002;DHT22;3541;53.230;10.518;2024-01-30T13:11:25;8.70;99.90
7002;DHT22;3541;53.230;10.518;2024-01-30T13:13:53;8.80;99.90
7002;DHT22;3541;53.230;10.518;2024-01-30T13:16:19;8.80;99.90
7002;DHT22;3541;53.230;10.518;2024-01-30T13:18:46;8.80;99.90
7002;DHT22;3541;53.230;10.518;2024-01-30T13:21:12;8.90;99.90
7002;DHT22;3541;53.230;10.518;2024-01-30T13:23:39;8.90;99.90
7002;DHT22;3541;53.230;10.518;2024-01-30T13:26:06;8.90;99.90
7002;DHT22;3541;53.230;10.518;2024-01-30T13:28:32;8.90;99.90
7002;DHT22;3541;53.230;10.518;2024-01-30T13:31:00;8.90;99.90
7002;DHT22;3541;53.230;10.518;2024-01-30T13:33:27;8.90;99.90
7002;DHT22;3541;53.230;10.518;2024-01-30T13:35:53;8.90;99.90
7002;DHT22;3541;53.230;10.518;2024-01-30T13:38:20;8.90;99.90
7002;DHT22;3541;53.230;10.518;2024-01-30T13:40:47;8.90;99.90
7002;DHT22;3541;53.230;10.518;2024-01-30T13:43:13;8.90;99.90
7002;DHT22;3541;53.230;10.518;2024-01-30T13:45:41;8.90;99.90
7002;DHT22;3541;53.230;10.518;2024-01-30T13:48:09;8.90;99.90
7002;DHT22;3541;53.230;10.518;2024-01-30T13:50:36;9.00;99.90
7002;DHT22;3541;53.230;10.518;2024-01-30T13:53:03;9.00;99.90
7002;DHT22;3541;53.230;10.518;2024-01-30T13:55:30;9.00;99.90
7002;DHT22;3541;53.230;10.518;2024-01-30T13:57:56;8.90;99.90
7002;DHT22;3541;53.230;10.518;2024-01-30T14:00:23;8.90;99.90
7002;DHT22;3541;53.230;10.518;2024-01-30T14:02:51;8.90;99.90
7002;DHT22;3541;53.230;10.518;2024-01-30T14:05:21;8.90;99.90
7002;DHT22;3541;53.230;10.518;2024-01-30T14:07:48;8.90;99.90
7002;DHT22;3541;53.230;10.518;2024-01-30T14:10:15;8.90;99.90
7002;DHT22;3541;53.230;10.518;2024-01-30T14:12:42;8.90;99.90
7002;DHT22;3541;53.230;10.518;2024-01-30T14:15:09;8.90;99.90
7002;DHT22;3541;53.230;10.518;2024-01-30T14:17:36;8.90;99.90
7002;DHT22;3541;53.230;10.518;2024-01-30T14:20:04;8.90;99.90
7002;DHT22;3541;53.230;10.518;2024-01-30T14:22:33;8.80;99.90
7002;DHT22;3541;53.230;10.518;2024-01-30T14:25:00;8.80;99.90
7002;DHT22;3541;53.230;10.518;2024-01-30T14:27:28;8.80;99.90
7002;DHT22;3541;53.230;10.518;2024-01-30T14:29:55;8.80;99.90
7002;DHT22;3541;53.230;10.518;2024-01-30T14:32:22;8.90;99.90
7002;DHT22;3541;53.230;10.518;2024-01-30T14:34:49;8.80;99.90
7002;DHT22;3541;53.230;10.518;2024-01-30T14:37:16;8.90;99.90
7002;DHT22;3541;53.230;10.518;2024-01-30T14:39:44;8.90;99.90
7002;DHT22;3541;53.230;10.518;2024-01-30T14:42:10;8.90;99.90
7002;DHT22;3541;53.230;10.518;2024-01-30T14:44:37;8.90;99.90
7002;DHT22;3541;53.230;10.518;2024-01-30T14:47:05;8.90;99.90
7002;DHT22;3541;53.230;10.518;2024-01-30T14:49:31;8.90;99.90
7002;DHT22;3541;53.230;10.518;2024-01-30T14:51:58;8.80;99.90
7002;DHT22;3541;53.230;10.518;2024-01-30T14:54:26;8.80;99.90
7002;DHT22;3541;53.230;10.518;2024-01-30T14:56:54;8.90;99.90
7002;DHT22;3541;53.230;10.518;2024-01-30T14:59:20;8.90;99.90
7002;DHT22;3541;53.230;10.518;2024-01-30T15:01:47;8.80;99.90
7002;DHT22;3541;53.230;10.518;2024-01-30T15:04:14;8.80;99.90
7002;DHT22;3541;53.230;10.518;2024-01-30T15:06:40;8.80;99.90
7002;DHT22;3541;53.230;10.518;2024-01-30T15:09:10;8.80;99.90
7002;DHT22;3541;53.230;10.518;2024-01-30T15:11:40;8.80;99.90
7002;DHT22;3541;53.230;10.518;2024-01-30T15:14:08;8.80;99.90
7002;DHT22;3541;53.230;10.518;2024-01-30T15:16:34;8.90;99.90
7002;DHT22;3541;53.230;10.518;2024-01-30T15:19:01;8.80;99.90
7002;DHT22;3541;53.230;10.518;2024-01-30T15:21:28;8.80;99.90
7002;DHT22;3541;53.230;10.518;2024-01-30T15:23:54;8.80;99.90
7002;DHT22;3541;53.230;10.518;2024-01-30T15:26:21;8.80;99.90
7002;DHT22;3541;53.230;10.518;2024-01-30T15:28:48;8.80;99.90
7002;DHT22;3541;53.230;10.518;2024-01-30T15:31:16;8.90;99.90
7002;DHT22;3541;53.230;10.518;2024-01-30T15:33:42;8.80;99.90
7002;DHT22;3541;53.230;10.518;2024-01-30T15:36:10;8.90;99.90
7002;DHT22;3541;53.230;10.518;2024-01-30T15:38:38;8.80;99.90
7002;DHT22;3541;53.230;10.518;2024-01-30T15:41:05;8.80;99.90
7002;DHT22;3541;53.230;10.518;2024-01-30T15:43:32;8.80;99.90
7002;DHT22;3541;53.230;10.518;2024-01-30T15:45:59;8.90;99.90
7002;DHT22;3541;53.230;10.518;2024-01-30T15:48:27;8.80;99.90
7002;DHT22;3541;53.230;10.518;2024-01-30T15:50:54;8.90;99.90
7002;DHT22;3541;53.230;10.518;2024-01-30T15:53:21;8.90;99.90
7002;DHT22;3541;53.230;10.518;2024-01-30T15:55:48;8.90;99.90
7002;DHT22;3541;53.230;10.518;2024-01-30T15:58:14;8.90;99.90
7002;DHT22;3541;53.230;10.518;2024-01-30T16:00:41;9.00;99.90